sensor_id;sensor_type;location;lat;lon;timestamp;noise_LAeq;noise_LA_min;noise_LA_max;noise_LA01;noise_LA95
66335;Laerm;53138;51.496;6.410;2024-01-11T00:00:02;33.30;31.60;36.06;;
66335;Laerm;53138;51.496;6.410;2024-01-11T00:00:13;33.41;31.52;35.66;;
66335;Laerm;53138;51.496;6.410;2024-01-11T00:00:23;33.27;31.00;35.95;;
66335;Laerm;53138;51.496;6.410;2024-01-11T00:00:33;33.38;31.23;35.45;;
66335;Laerm;53138;51.496;6.410;2024-01-11T00:00:43;34.07;31.15;41.68;;
66335;Laerm;53138;51.496;6.410;2024-01-11T00:00:54;32.60;30.62;36.23;;
66335;Laerm;53138;51.496;6.410;2024-01-11T00:01:04;32.91;31.14;36.59;;
66335;Laerm;53138;51.496;6.410;2024-01-11T00:01:14;32.65;30.84;34.54;;
66335;Laerm;53138;51.496;6.410;2024-01-11T00:01:24;32.72;31.03;34.46;;
66335;Laerm;53138;51.496;6.410;2024-01-11T00:01:34;34.35;30.36;41.19;;
66335;Laerm;53138;51.496;6.410;2024-01-11T00:01:45;33.89;31.11;36.97;;
66335;Laerm;53138;51.496;6.410;2024-01-11T00:01:56;31.71;30.21;32.98;;
66335;Laerm;53138;51.496;6.410;2024-01-11T00:02:06;31.64;30.08;33.44;;
66335;Laerm;53138;51.496;6.410;2024-01-11T00:02:16;31.81;30.07;33.32;;
66335;Laerm;53138;51.496;6.410;2024-01-11T00:02:27;31.76;30.32;33.07;;
66335;Laerm;53138;51.496;6.410;2024-01-11T00:02:38;32.47;30.42;34.69;;
66335;Laerm;53138;51.496;6.410;2024-01-11T00:02:48;33.23;31.23;35.77;;
66335;Laerm;53138;51.496;6.410;2024-01-11T00:02:58;33.12;30.70;34.75;;
66335;Laerm;53138;51.496;6.410;2024-01-11T00:03:08;33.08;31.39;35.36;;
66335;Laerm;53138;51.496;6.410;2024-01-11T00:03:19;33.26;31.03;35.69;;
66335;Laerm;53138;51.496;6.410;2024-01-11T00:03:30;34.33;31.34;48.24;;
66335;Laerm;53138;51.496;6.410;2024-01-11T00:03:40;33.16;31.23;35.12;;
66335;Laerm;53138;51.496;6.410;2024-01-11T00:03:51;32.99;31.40;34.72;;
66335;Laerm;53138;51.496;6.410;2024-01-11T00:04:01;33.45;31.59;35.30;;
66335;Laerm;53138;51.496;6.410;2024-01-11T00:04:11;33.63;31.84;35.52;;
66335;Laerm;53138;51.496;6.410;2024-01-11T00:04:21;34.44;32.30;38.09;;
66335;Laerm;53138;51.496;6.410;2024-01-11T00:04:32;34.69;32.29;39.74;;
66335;Laerm;53138;51.496;6.410;2024-01-11T00:04:42;35.52;32.75;38.57;;
66335;Laerm;53138;51.496;6.410;2024-01-11T00:04:53;36.06;32.70;43.91;;
66335;Laerm;53138;51.496;6.410;2024-01-11T00:05:04;36.10;32.34;40.87;;
66335;Laerm;53138;51.496;6.410;2024-01-11T00:05:14;40.57;34.43;47.74;;
66335;Laerm;53138;51.496;6.410;2024-01-11T00:05:24;45.19;35.08;53.13;;
66335;Laerm;53138;51.496;6.410;2024-01-11T00:05:35;38.31;33.80;45.73;;
66335;Laerm;53138;51.496;6.410;2024-01-11T00:05:45;39.61;34.21;47.68;;
66335;Laerm;53138;51.496;6.410;2024-01-11T00:05:55;37.57;33.83;42.65;;
66335;Laerm;53138;51.496;6.410;2024-01-11T00:06:05;34.87;31.54;38.23;;
66335;Laerm;53138;51.496;6.410;2024-01-11T00:06:15;32.41;30.29;35.85;;
66335;Laerm;53138;51.496;6.410;2024-01-11T00:06:26;32.48;30.43;35.73;;
66335;Laerm;53138;51.496;6.410;2024-01-11T00:06:40;32.32;30.57;34.70;;
66335;Laerm;53138;51.496;6.410;2024-01-11T00:06:50;32.22;30.68;34.20;;
66335;Laerm;53138;51.496;6.410;2024-01-11T00:07:00;32.03;30.03;33.81;;
66335;Laerm;53138;51.496;6.410;2024-01-11T00:07:10;32.63;30.61;34.94;;
66335;Laerm;53138;51.496;6.410;2024-01-11T00:07:21;31.85;30.35;33.82;;
66335;Laerm;53138;51.496;6.410;2024-01-11T00:07:31;31.26;29.70;32.40;;
66335;Laerm;53138;51.496;6.410;2024-01-11T00:07:41;31.32;29.86;32.37;;
66335;Laerm;53138;51.496;6.410;2024-01-11T00:07:51;31.32;29.77;34.66;;
66335;Laerm;53138;51.496;6.410;2024-01-11T00:08:02;31.16;29.83;32.60;;
66335;Laerm;53138;51.496;6.410;2024-01-11T00:08:12;31.21;30.02;32.95;;
66335;Laerm;53138;51.496;6.410;2024-01-11T00:08:23;31.27;30.00;32.60;;
66335;Laerm;53138;51.496;6.410;2024-01-11T00:08:33;31.51;30.11;33.00;;
66335;Laerm;53138;51.496;6.410;2024-01-11T00:08:43;31.33;30.00;32.87;;
66335;Laerm;53138;51.496;6.410;2024-01-11T00:08:53;31.49;30.02;38.72;;
66335;Laerm;53138;51.496;6.410;2024-01-11T00:09:04;31.37;29.66;33.17;;
66335;Laerm;53138;51.496;6.410;2024-01-11T00:09:14;31.79;29.96;37.80;;
66335;Laerm;53138;51.496;6.410;2024-01-11T00:09:24;32.96;30.97;35.71;;
66335;Laerm;53138;51.496;6.410;2024-01-11T00:09:38;32.85;31.08;35.29;;
66335;Laerm;53138;51.496;6.410;2024-01-11T00:09:48;32.93;30.99;36.44;;
66335;Laerm;53138;51.496;6.410;2024-01-11T00:10:00;32.91;30.96;34.93;;
66335;Laerm;53138;51.496;6.410;2024-01-11T00:10:10;32.96;30.82;35.35;;
66335;Laerm;53138;51.496;6.410;2024-01-11T00:10:21;33.14;30.76;35.75;;
66335;Laerm;53138;51.496;6.410;2024-01-11T00:10:31;33.07;30.89;35.78;;
66335;Laerm;53138;51.496;6.410;2024-01-11T00:10:41;33.01;31.20;35.88;;
66335;Laerm;53138;51.496;6.410;2024-01-11T00:10:51;33.18;30.83;36.84;;
66335;Laerm;53138;51.496;6.410;2024-01-11T00:11:02;33.07;31.27;35.42;;
66335;Laerm;53138;51.496;6.410;2024-01-11T00:11:12;33.26;31.08;35.52;;
66335;Laerm;53138;51.496;6.410;2024-01-11T00:11:22;33.21;30.92;35.69;;
66335;Laerm;53138;51.496;6.410;2024-01-11T00:11:32;33.36;30.93;36.26;;
66335;Laerm;53138;51.496;6.410;2024-01-11T00:11:42;33.26;31.16;36.23;;
66335;Laerm;53138;51.496;6.410;2024-01-11T00:11:53;33.57;31.39;42.23;;
66335;Laerm;53138;51.496;6.410;2024-01-11T00:12:03;33.18;30.80;35.32;;
66335;Laerm;53138;51.496;6.410;2024-01-11T00:12:13;33.26;31.24;35.50;;
66335;Laerm;53138;51.496;6.410;2024-01-11T00:12:24;32.84;30.59;37.57;;
66335;Laerm;53138;51.496;6.410;2024-01-11T00:12:34;31.52;29.47;32.98;;
66335;Laerm;53138;51.496;6.410;2024-01-11T00:12:44;31.51;30.18;32.66;;
66335;Laerm;53138;51.496;6.410;2024-01-11T00:12:54;31.80;29.96;41.38;;
66335;Laerm;53138;51.496;6.410;2024-01-11T00:13:04;31.48;29.99;32.77;;
66335;Laerm;53138;51.496;6.410;2024-01-11T00:13:15;31.55;30.28;32.95;;
66335;Laerm;53138;51.496;6.410;2024-01-11T00:13:25;31.62;29.92;33.77;;
66335;Laerm;53138;51.496;6.410;2024-01-11T00:13:35;31.76;30.02;33.36;;
66335;Laerm;53138;51.496;6.410;2024-01-11T00:13:46;31.91;30.31;33.29;;
66335;Laerm;53138;51.496;6.410;2024-01-11T00:13:56;32.88;30.94;37.56;;
66335;Laerm;53138;51.496;6.410;2024-01-11T00:14:06;40.65;35.26;46.55;;
66335;Laerm;53138;51.496;6.410;2024-01-11T00:14:16;39.68;31.68;48.11;;
66335;Laerm;53138;51.496;6.410;2024-01-11T00:14:27;31.91;30.21;33.72;;
66335;Laerm;53138;51.496;6.410;2024-01-11T00:14:37;31.71;30.48;33.07;;
66335;Laerm;53138;51.496;6.410;2024-01-11T00:14:47;31.90;30.41;42.79;;
66335;Laerm;53138;51.496;6.410;2024-01-11T00:14:57;31.85;30.18;38.72;;
66335;Laerm;53138;51.496;6.410;2024-01-11T00:15:09;31.73;30.25;33.41;;
66335;Laerm;53138;51.496;6.410;2024-01-11T00:15:19;32.09;30.46;33.60;;
66335;Laerm;53138;51.496;6.410;2024-01-11T00:15:29;35.17;31.31;40.00;;
66335;Laerm;53138;51.496;6.410;2024-01-11T00:15:39;35.65;32.51;40.24;;
66335;Laerm;53138;51.496;6.410;2024-01-11T00:15:50;34.00;31.52;39.72;;
66335;Laerm;53138;51.496;6.410;2024-01-11T00:16:00;33.82;31.67;38.42;;
66335;Laerm;53138;51.496;6.410;2024-01-11T00:16:10;32.48;30.65;34.35;;
66335;Laerm;53138;51.496;6.410;2024-01-11T00:16:20;31.77;30.14;33.41;;
66335;Laerm;53138;51.496;6.410;2024-01-11T00:16:31;31.70;30.34;33.35;;
66335;Laerm;53138;51.496;6.410;2024-01-11T00:16:41;31.77;30.24;33.26;;
66335;Laerm;53138;51.496;6.410;2024-01-11T00:16:51;31.88;30.40;33.33;;
66335;Laerm;53138;51.496;6.410;2024-01-11T00:17:02;32.35;30.34;46.01;;
66335;Laerm;53138;51.496;6.410;2024-01-11T00:17:12;31.87;30.38;34.61;;
66335;Laerm;53138;51.496;6.410;2024-01-11T00:17:22;31.65;30.39;32.80;;
66335;Laerm;53138;51.496;6.410;2024-01-11T00:17:33;32.69;30.81;35.38;;
66335;Laerm;53138;51.496;6.410;2024-01-11T00:17:43;34.20;31.62;37.30;;
66335;Laerm;53138;51.496;6.410;2024-01-11T00:17:53;36.05;31.80;44.22;;
66335;Laerm;53138;51.496;6.410;2024-01-11T00:18:03;35.19;31.37;41.45;;
66335;Laerm;53138;51.496;6.410;2024-01-11T00:18:14;33.65;31.29;37.72;;
66335;Laerm;53138;51.496;6.410;2024-01-11T00:18:24;32.82;30.47;43.42;;
66335;Laerm;53138;51.496;6.410;2024-01-11T00:18:34;32.06;30.51;35.00;;
66335;Laerm;53138;51.496;6.410;2024-01-11T00:18:44;31.80;30.45;33.46;;
66335;Laerm;53138;51.496;6.410;2024-01-11T00:18:55;31.76;30.36;33.08;;
66335;Laerm;53138;51.496;6.410;2024-01-11T00:19:05;31.69;30.39;32.98;;
66335;Laerm;53138;51.496;6.410;2024-01-11T00:19:15;31.60;29.91;33.31;;
66335;Laerm;53138;51.496;6.410;2024-01-11T00:19:25;31.54;30.19;32.91;;
66335;Laerm;53138;51.496;6.410;2024-01-11T00:19:35;31.53;30.16;33.61;;
66335;Laerm;53138;51.496;6.410;2024-01-11T00:19:46;31.58;30.24;33.14;;
66335;Laerm;53138;51.496;6.410;2024-01-11T00:19:56;31.63;30.31;34.82;;
66335;Laerm;53138;51.496;6.410;2024-01-11T00:20:06;31.50;29.69;33.83;;
66335;Laerm;53138;51.496;6.410;2024-01-11T00:20:17;31.43;29.72;32.80;;
66335;Laerm;53138;51.496;6.410;2024-01-11T00:20:27;31.43;29.95;32.97;;
66335;Laerm;53138;51.496;6.410;2024-01-11T00:20:38;32.10;30.35;35.79;;
66335;Laerm;53138;51.496;6.410;2024-01-11T00:20:48;33.14;31.35;35.78;;
66335;Laerm;53138;51.496;6.410;2024-01-11T00:20:58;32.99;30.12;35.81;;
66335;Laerm;53138;51.496;6.410;2024-01-11T00:21:08;33.17;31.02;35.73;;
66335;Laerm;53138;51.496;6.410;2024-01-11T00:21:18;33.24;31.03;35.45;;
66335;Laerm;53138;51.496;6.410;2024-01-11T00:21:29;33.15;30.69;35.61;;
66335;Laerm;53138;51.496;6.410;2024-01-11T00:21:39;33.16;31.39;35.66;;
66335;Laerm;53138;51.496;6.410;2024-01-11T00:21:49;33.13;31.47;36.91;;
66335;Laerm;53138;51.496;6.410;2024-01-11T00:21:59;33.27;31.40;36.20;;
66335;Laerm;53138;51.496;6.410;2024-01-11T00:22:10;33.25;31.25;36.29;;
66335;Laerm;53138;51.496;6.410;2024-01-11T00:22:20;33.24;31.39;37.16;;
66335;Laerm;53138;51.496;6.410;2024-01-11T00:22:30;33.19;31.14;35.39;;
66335;Laerm;53138;51.496;6.410;2024-01-11T00:22:42;33.42;31.04;37.18;;
66335;Laerm;53138;51.496;6.410;2024-01-11T00:22:52;33.27;31.05;35.60;;
66335;Laerm;53138;51.496;6.410;2024-01-11T00:23:03;33.07;31.37;37.12;;
66335;Laerm;53138;51.496;6.410;2024-01-11T00:23:13;33.25;31.23;36.05;;
66335;Laerm;53138;51.496;6.410;2024-01-11T00:23:23;33.21;31.25;36.03;;
66335;Laerm;53138;51.496;6.410;2024-01-11T00:23:33;33.29;30.84;35.73;;
66335;Laerm;53138;51.496;6.410;2024-01-11T00:23:44;33.30;31.28;35.62;;
66335;Laerm;53138;51.496;6.410;2024-01-11T00:23:54;31.66;30.38;35.07;;
66335;Laerm;53138;51.496;6.410;2024-01-11T00:24:04;31.55;30.11;32.72;;
66335;Laerm;53138;51.496;6.410;2024-01-11T00:24:14;31.45;29.57;33.37;;
66335;Laerm;53138;51.496;6.410;2024-01-11T00:24:25;31.45;29.70;33.65;;
66335;Laerm;53138;51.496;6.410;2024-01-11T00:24:35;31.58;30.29;33.31;;
66335;Laerm;53138;51.496;6.410;2024-01-11T00:24:45;31.56;30.07;33.65;;
66335;Laerm;53138;51.496;6.410;2024-01-11T00:24:56;31.53;30.37;32.83;;
66335;Laerm;53138;51.496;6.410;2024-01-11T00:25:06;31.53;30.00;32.73;;
66335;Laerm;53138;51.496;6.410;2024-01-11T00:25:16;31.54;29.71;32.93;;
66335;Laerm;53138;51.496;6.410;2024-01-11T00:25:27;31.51;30.27;32.88;;
66335;Laerm;53138;51.496;6.410;2024-01-11T00:25:37;31.64;30.10;33.01;;
66335;Laerm;53138;51.496;6.410;2024-01-11T00:25:47;31.54;30.30;33.08;;
66335;Laerm;53138;51.496;6.410;2024-01-11T00:25:57;31.64;30.21;33.95;;
66335;Laerm;53138;51.496;6.410;2024-01-11T00:26:12;32.22;30.43;41.76;;
66335;Laerm;53138;51.496;6.410;2024-01-11T00:26:22;31.92;30.25;39.22;;
66335;Laerm;53138;51.496;6.410;2024-01-11T00:26:32;31.76;30.27;33.53;;
66335;Laerm;53138;51.496;6.410;2024-01-11T00:26:42;31.77;30.13;34.85;;
66335;Laerm;53138;51.496;6.410;2024-01-11T00:26:52;31.76;30.47;33.16;;
66335;Laerm;53138;51.496;6.410;2024-01-11T00:27:03;31.73;30.54;33.29;;
66335;Laerm;53138;51.496;6.410;2024-01-11T00:27:13;31.56;30.23;32.73;;
66335;Laerm;53138;51.496;6.410;2024-01-11T00:27:23;31.49;30.19;32.66;;
66335;Laerm;53138;51.496;6.410;2024-01-11T00:27:33;31.49;29.61;32.68;;
66335;Laerm;53138;51.496;6.410;2024-01-11T00:27:44;31.61;30.19;33.10;;
66335;Laerm;53138;51.496;6.410;2024-01-11T00:27:54;31.60;29.98;33.11;;
66335;Laerm;53138;51.496;6.410;2024-01-11T00:28:04;31.50;29.89;32.73;;
66335;Laerm;53138;51.496;6.410;2024-01-11T00:28:14;31.63;29.99;33.10;;
66335;Laerm;53138;51.496;6.410;2024-01-11T00:28:24;31.64;30.18;33.14;;
66335;Laerm;53138;51.496;6.410;2024-01-11T00:28:35;31.68;30.57;33.85;;
66335;Laerm;53138;51.496;6.410;2024-01-11T00:28:45;31.68;30.06;33.02;;
66335;Laerm;53138;51.496;6.410;2024-01-11T00:28:55;31.69;30.50;33.05;;
66335;Laerm;53138;51.496;6.410;2024-01-11T00:29:05;31.57;30.35;33.01;;
66335;Laerm;53138;51.496;6.410;2024-01-11T00:29:16;31.68;30.03;33.07;;
66335;Laerm;53138;51.496;6.410;2024-01-11T00:29:26;31.66;30.31;33.29;;
66335;Laerm;53138;51.496;6.410;2024-01-11T00:29:36;31.62;29.94;33.23;;
66335;Laerm;53138;51.496;6.410;2024-01-11T00:29:46;31.63;30.11;33.15;;
66335;Laerm;53138;51.496;6.410;2024-01-11T00:29:57;31.51;29.93;32.97;;
66335;Laerm;53138;51.496;6.410;2024-01-11T00:30:07;31.41;29.73;32.97;;
66335;Laerm;53138;51.496;6.410;2024-01-11T00:30:17;31.40;30.07;32.99;;
66335;Laerm;53138;51.496;6.410;2024-01-11T00:30:28;31.55;30.07;33.79;;
66335;Laerm;53138;51.496;6.410;2024-01-11T00:30:38;31.54;30.19;33.08;;
66335;Laerm;53138;51.496;6.410;2024-01-11T00:30:48;31.60;29.91;33.17;;
66335;Laerm;53138;51.496;6.410;2024-01-11T00:30:58;31.61;30.16;33.11;;
66335;Laerm;53138;51.496;6.410;2024-01-11T00:31:09;31.54;30.18;33.98;;
66335;Laerm;53138;51.496;6.410;2024-01-11T00:31:19;31.52;29.76;33.39;;
66335;Laerm;53138;51.496;6.410;2024-01-11T00:31:29;32.74;30.33;34.73;;
66335;Laerm;53138;51.496;6.410;2024-01-11T00:31:39;33.18;31.27;35.08;;
66335;Laerm;53138;51.496;6.410;2024-01-11T00:31:49;33.29;31.35;35.14;;
66335;Laerm;53138;51.496;6.410;2024-01-11T00:32:00;33.02;31.29;35.19;;
66335;Laerm;53138;51.496;6.410;2024-01-11T00:32:10;33.89;31.75;36.64;;
66335;Laerm;53138;51.496;6.410;2024-01-11T00:32:20;34.07;32.13;37.14;;
66335;Laerm;53138;51.496;6.410;2024-01-11T00:32:33;33.96;31.13;35.86;;
66335;Laerm;53138;51.496;6.410;2024-01-11T00:32:44;34.19;32.00;36.59;;
66335;Laerm;53138;51.496;6.410;2024-01-11T00:32:54;34.19;31.95;36.59;;
66335;Laerm;53138;51.496;6.410;2024-01-11T00:33:04;34.06;31.75;37.53;;
66335;Laerm;53138;51.496;6.410;2024-01-11T00:33:16;33.98;30.67;36.86;;
66335;Laerm;53138;51.496;6.410;2024-01-11T00:33:26;34.14;31.42;36.82;;
66335;Laerm;53138;51.496;6.410;2024-01-11T00:33:37;34.22;31.48;37.92;;
66335;Laerm;53138;51.496;6.410;2024-01-11T00:33:47;34.11;31.15;36.77;;
66335;Laerm;53138;51.496;6.410;2024-01-11T00:33:57;34.29;32.29;36.86;;
66335;Laerm;53138;51.496;6.410;2024-01-11T00:34:08;34.00;31.64;36.38;;
66335;Laerm;53138;51.496;6.410;2024-01-11T00:34:18;33.98;31.74;38.06;;
66335;Laerm;53138;51.496;6.410;2024-01-11T00:34:28;34.07;32.06;36.61;;
66335;Laerm;53138;51.496;6.410;2024-01-11T00:34:39;33.26;30.56;35.97;;
66335;Laerm;53138;51.496;6.410;2024-01-11T00:34:49;33.02;31.11;35.62;;
66335;Laerm;53138;51.496;6.410;2024-01-11T00:34:59;33.09;31.08;36.43;;
66335;Laerm;53138;51.496;6.410;2024-01-11T00:35:09;33.04;31.27;35.63;;
66335;Laerm;53138;51.496;6.410;2024-01-11T00:35:20;31.60;29.67;34.62;;
66335;Laerm;53138;51.496;6.410;2024-01-11T00:35:30;31.20;29.69;32.82;;
66335;Laerm;53138;51.496;6.410;2024-01-11T00:35:40;31.26;29.87;32.41;;
66335;Laerm;53138;51.496;6.410;2024-01-11T00:35:50;31.25;29.74;32.54;;
66335;Laerm;53138;51.496;6.410;2024-01-11T00:36:00;31.22;29.75;32.41;;
66335;Laerm;53138;51.496;6.410;2024-01-11T00:36:11;31.26;29.86;32.66;;
66335;Laerm;53138;51.496;6.410;2024-01-11T00:36:26;31.39;30.10;32.71;;
66335;Laerm;53138;51.496;6.410;2024-01-11T00:36:38;31.41;29.68;33.07;;
66335;Laerm;53138;51.496;6.410;2024-01-11T00:36:48;31.38;29.69;33.05;;
66335;Laerm;53138;51.496;6.410;2024-01-11T00:36:58;31.40;30.11;32.93;;
66335;Laerm;53138;51.496;6.410;2024-01-11T00:37:09;31.28;30.18;32.82;;
66335;Laerm;53138;51.496;6.410;2024-01-11T00:37:19;31.33;30.05;33.01;;
66335;Laerm;53138;51.496;6.410;2024-01-11T00:37:29;31.33;30.01;32.79;;
66335;Laerm;53138;51.496;6.410;2024-01-11T00:37:39;31.27;29.61;32.39;;
66335;Laerm;53138;51.496;6.410;2024-01-11T00:37:50;31.26;29.90;32.97;;
66335;Laerm;53138;51.496;6.410;2024-01-11T00:38:00;31.25;30.02;32.62;;
66335;Laerm;53138;51.496;6.410;2024-01-11T00:38:10;31.30;29.91;32.56;;
66335;Laerm;53138;51.496;6.410;2024-01-11T00:38:21;31.37;29.48;32.87;;
66335;Laerm;53138;51.496;6.410;2024-01-11T00:38:31;31.30;30.21;32.77;;
66335;Laerm;53138;51.496;6.410;2024-01-11T00:38:41;31.35;30.10;33.05;;
66335;Laerm;53138;51.496;6.410;2024-01-11T00:38:51;31.35;29.79;33.15;;
66335;Laerm;53138;51.496;6.410;2024-01-11T00:39:02;31.40;30.15;32.76;;
66335;Laerm;53138;51.496;6.410;2024-01-11T00:39:12;31.38;29.83;33.09;;
66335;Laerm;53138;51.496;6.410;2024-01-11T00:39:22;31.37;29.81;33.09;;
66335;Laerm;53138;51.496;6.410;2024-01-11T00:39:33;31.41;29.95;33.08;;
66335;Laerm;53138;51.496;6.410;2024-01-11T00:39:43;31.58;30.49;33.02;;
66335;Laerm;53138;51.496;6.410;2024-01-11T00:39:54;31.64;29.95;33.23;;
66335;Laerm;53138;51.496;6.410;2024-01-11T00:40:04;31.63;30.25;32.77;;
66335;Laerm;53138;51.496;6.410;2024-01-11T00:40:15;31.61;30.08;33.04;;
66335;Laerm;53138;51.496;6.410;2024-01-11T00:40:25;31.72;30.33;33.75;;
66335;Laerm;53138;51.496;6.410;2024-01-11T00:40:35;31.96;29.65;34.24;;
66335;Laerm;53138;51.496;6.410;2024-01-11T00:40:45;32.73;30.83;34.97;;
66335;Laerm;53138;51.496;6.410;2024-01-11T00:40:56;32.01;30.50;34.08;;
66335;Laerm;53138;51.496;6.410;2024-01-11T00:41:06;31.68;30.07;33.46;;
66335;Laerm;53138;51.496;6.410;2024-01-11T00:41:16;32.27;30.65;34.79;;
66335;Laerm;53138;51.496;6.410;2024-01-11T00:41:27;32.40;30.87;34.55;;
66335;Laerm;53138;51.496;6.410;2024-01-11T00:41:37;38.68;31.57;43.65;;
66335;Laerm;53138;51.496;6.410;2024-01-11T00:41:47;34.59;31.77;39.29;;
66335;Laerm;53138;51.496;6.410;2024-01-11T00:41:57;31.89;30.26;34.00;;
66335;Laerm;53138;51.496;6.410;2024-01-11T00:42:08;31.72;30.38;33.48;;
66335;Laerm;53138;51.496;6.410;2024-01-11T00:42:18;31.62;30.15;32.89;;
66335;Laerm;53138;51.496;6.410;2024-01-11T00:42:28;32.03;30.14;39.33;;
66335;Laerm;53138;51.496;6.410;2024-01-11T00:42:38;31.48;30.42;32.83;;
66335;Laerm;53138;51.496;6.410;2024-01-11T00:42:48;31.55;30.17;32.83;;
66335;Laerm;53138;51.496;6.410;2024-01-11T00:42:58;31.87;30.07;34.89;;
66335;Laerm;53138;51.496;6.410;2024-01-11T00:43:09;31.48;30.22;33.02;;
66335;Laerm;53138;51.496;6.410;2024-01-11T00:43:19;31.44;29.70;32.90;;
66335;Laerm;53138;51.496;6.410;2024-01-11T00:43:29;31.76;30.31;34.44;;
66335;Laerm;53138;51.496;6.410;2024-01-11T00:43:40;32.84;30.73;35.48;;
66335;Laerm;53138;51.496;6.410;2024-01-11T00:43:50;32.85;30.87;35.53;;
66335;Laerm;53138;51.496;6.410;2024-01-11T00:44:00;33.01;31.13;36.01;;
66335;Laerm;53138;51.496;6.410;2024-01-11T00:44:10;33.00;30.41;35.59;;
66335;Laerm;53138;51.496;6.410;2024-01-11T00:44:20;32.99;30.74;35.58;;
66335;Laerm;53138;51.496;6.410;2024-01-11T00:44:31;33.04;30.86;35.87;;
66335;Laerm;53138;51.496;6.410;2024-01-11T00:44:41;33.19;30.94;36.01;;
66335;Laerm;53138;51.496;6.410;2024-01-11T00:44:51;33.01;31.08;35.59;;
66335;Laerm;53138;51.496;6.410;2024-01-11T00:45:02;33.10;30.88;35.91;;
66335;Laerm;53138;51.496;6.410;2024-01-11T00:45:13;33.11;30.49;36.41;;
66335;Laerm;53138;51.496;6.410;2024-01-11T00:45:23;33.15;30.85;35.51;;
66335;Laerm;53138;51.496;6.410;2024-01-11T00:45:33;33.16;30.99;35.44;;
66335;Laerm;53138;51.496;6.410;2024-01-11T00:45:44;33.16;31.22;35.50;;
66335;Laerm;53138;51.496;6.410;2024-01-11T00:45:56;33.11;31.41;35.44;;
66335;Laerm;53138;51.496;6.410;2024-01-11T00:46:06;33.14;30.99;35.67;;
66335;Laerm;53138;51.496;6.410;2024-01-11T00:46:16;33.29;31.01;39.81;;
66335;Laerm;53138;51.496;6.410;2024-01-11T00:46:26;33.24;31.37;36.60;;
66335;Laerm;53138;51.496;6.410;2024-01-11T00:46:36;33.32;31.20;36.04;;
66335;Laerm;53138;51.496;6.410;2024-01-11T00:46:48;32.08;30.12;35.04;;
66335;Laerm;53138;51.496;6.410;2024-01-11T00:46:58;31.81;30.23;33.55;;
66335;Laerm;53138;51.496;6.410;2024-01-11T00:47:09;31.76;30.46;33.19;;
66335;Laerm;53138;51.496;6.410;2024-01-11T00:47:20;31.73;30.15;33.68;;
66335;Laerm;53138;51.496;6.410;2024-01-11T00:47:30;31.67;29.92;32.98;;
66335;Laerm;53138;51.496;6.410;2024-01-11T00:47:41;31.66;30.08;33.33;;
66335;Laerm;53138;51.496;6.410;2024-01-11T00:47:51;31.76;30.35;32.98;;
66335;Laerm;53138;51.496;6.410;2024-01-11T00:48:01;32.87;30.64;38.16;;
66335;Laerm;53138;51.496;6.410;2024-01-11T00:48:12;33.23;30.86;37.10;;
66335;Laerm;53138;51.496;6.410;2024-01-11T00:48:22;32.22;30.74;34.05;;
66335;Laerm;53138;51.496;6.410;2024-01-11T00:48:33;32.16;30.79;33.95;;
66335;Laerm;53138;51.496;6.410;2024-01-11T00:48:43;32.05;30.60;33.42;;
66335;Laerm;53138;51.496;6.410;2024-01-11T00:48:53;32.03;30.08;33.41;;
66335;Laerm;53138;51.496;6.410;2024-01-11T00:49:03;32.15;30.76;33.62;;
66335;Laerm;53138;51.496;6.410;2024-01-11T00:49:14;33.12;30.71;36.19;;
66335;Laerm;53138;51.496;6.410;2024-01-11T00:49:24;38.12;32.44;43.12;;
66335;Laerm;53138;51.496;6.410;2024-01-11T00:49:34;34.97;32.81;37.79;;
66335;Laerm;53138;51.496;6.410;2024-01-11T00:49:44;34.76;31.94;40.22;;
66335;Laerm;53138;51.496;6.410;2024-01-11T00:49:55;34.85;31.88;38.02;;
66335;Laerm;53138;51.496;6.410;2024-01-11T00:50:05;33.82;30.76;37.23;;
66335;Laerm;53138;51.496;6.410;2024-01-11T00:50:15;33.59;31.39;36.54;;
66335;Laerm;53138;51.496;6.410;2024-01-11T00:50:26;33.22;31.15;35.22;;
66335;Laerm;53138;51.496;6.410;2024-01-11T00:50:36;32.45;31.00;33.94;;
66335;Laerm;53138;51.496;6.410;2024-01-11T00:50:46;32.65;31.23;34.50;;
66335;Laerm;53138;51.496;6.410;2024-01-11T00:50:56;32.31;30.61;33.87;;
66335;Laerm;53138;51.496;6.410;2024-01-11T00:51:07;32.31;30.74;33.76;;
66335;Laerm;53138;51.496;6.410;2024-01-11T00:51:17;32.03;30.71;33.38;;
66335;Laerm;53138;51.496;6.410;2024-01-11T00:51:27;31.93;29.86;33.21;;
66335;Laerm;53138;51.496;6.410;2024-01-11T00:51:38;32.00;30.59;34.20;;
66335;Laerm;53138;51.496;6.410;2024-01-11T00:51:48;32.20;30.52;33.55;;
66335;Laerm;53138;51.496;6.410;2024-01-11T00:51:58;32.17;30.26;34.28;;
66335;Laerm;53138;51.496;6.410;2024-01-11T00:52:08;32.44;30.54;34.74;;
66335;Laerm;53138;51.496;6.410;2024-01-11T00:52:19;32.60;30.99;34.17;;
66335;Laerm;53138;51.496;6.410;2024-01-11T00:52:29;32.58;31.34;34.12;;
66335;Laerm;53138;51.496;6.410;2024-01-11T00:52:39;33.18;30.92;36.83;;
66335;Laerm;53138;51.496;6.410;2024-01-11T00:52:50;35.49;33.26;39.08;;
66335;Laerm;53138;51.496;6.410;2024-01-11T00:53:00;34.48;31.70;37.31;;
66335;Laerm;53138;51.496;6.410;2024-01-11T00:53:11;33.09;31.58;35.04;;
66335;Laerm;53138;51.496;6.410;2024-01-11T00:53:24;32.88;30.52;35.69;;
66335;Laerm;53138;51.496;6.410;2024-01-11T00:53:34;32.42;30.73;33.81;;
66335;Laerm;53138;51.496;6.410;2024-01-11T00:53:44;33.02;31.33;35.86;;
66335;Laerm;53138;51.496;6.410;2024-01-11T00:53:55;39.45;32.47;45.63;;
66335;Laerm;53138;51.496;6.410;2024-01-11T00:54:05;43.45;36.25;48.31;;
66335;Laerm;53138;51.496;6.410;2024-01-11T00:54:15;34.57;31.62;38.01;;
66335;Laerm;53138;51.496;6.410;2024-01-11T00:54:25;32.50;30.68;34.18;;
66335;Laerm;53138;51.496;6.410;2024-01-11T00:54:35;32.28;31.02;33.68;;
66335;Laerm;53138;51.496;6.410;2024-01-11T00:54:46;32.01;30.71;33.62;;
66335;Laerm;53138;51.496;6.410;2024-01-11T00:54:56;32.46;30.89;35.51;;
66335;Laerm;53138;51.496;6.410;2024-01-11T00:55:06;33.15;31.21;35.38;;
66335;Laerm;53138;51.496;6.410;2024-01-11T00:55:17;33.21;31.19;35.28;;
66335;Laerm;53138;51.496;6.410;2024-01-11T00:55:27;33.29;31.34;35.32;;
66335;Laerm;53138;51.496;6.410;2024-01-11T00:55:37;33.24;31.36;35.48;;
66335;Laerm;53138;51.496;6.410;2024-01-11T00:55:47;33.49;31.45;36.15;;
66335;Laerm;53138;51.496;6.410;2024-01-11T00:55:58;33.47;31.34;35.57;;
66335;Laerm;53138;51.496;6.410;2024-01-11T00:56:17;33.45;31.63;35.73;;
66335;Laerm;53138;51.496;6.410;2024-01-11T00:56:28;33.51;31.50;40.74;;
66335;Laerm;53138;51.496;6.410;2024-01-11T00:56:38;33.49;31.33;35.66;;
66335;Laerm;53138;51.496;6.410;2024-01-11T00:56:48;33.53;31.31;36.52;;
66335;Laerm;53138;51.496;6.410;2024-01-11T00:56:58;33.50;31.44;35.78;;
66335;Laerm;53138;51.496;6.410;2024-01-11T00:57:09;33.37;31.22;36.26;;
66335;Laerm;53138;51.496;6.410;2024-01-11T00:57:19;33.39;31.53;35.88;;
66335;Laerm;53138;51.496;6.410;2024-01-11T00:57:29;33.40;31.79;35.75;;
66335;Laerm;53138;51.496;6.410;2024-01-11T00:57:39;33.31;31.43;35.40;;
66335;Laerm;53138;51.496;6.410;2024-01-11T00:57:49;33.33;31.68;36.18;;
66335;Laerm;53138;51.496;6.410;2024-01-11T00:58:00;33.31;31.03;36.41;;
66335;Laerm;53138;51.496;6.410;2024-01-11T00:58:13;32.43;30.07;36.21;;